createdAt,value
2023-11-24T00:00:16.222Z,37.68
2023-11-24T00:01:16.224Z,37.67
2023-11-24T00:02:16.337Z,37.66
2023-11-24T00:03:16.222Z,37.67
2023-11-24T00:04:16.230Z,37.69
2023-11-24T00:05:16.161Z,37.67
2023-11-24T00:06:16.160Z,37.67
2023-11-24T00:07:16.131Z,37.68
2023-11-24T00:08:16.135Z,37.66
2023-11-24T00:09:16.109Z,37.67
2023-11-24T00:10:16.111Z,37.66
2023-11-24T00:11:16.120Z,37.68
2023-11-24T00:12:16.099Z,37.67
2023-11-24T00:13:16.105Z,37.68
2023-11-24T00:14:16.083Z,37.67
2023-11-24T00:15:16.105Z,37.67
2023-11-24T00:16:16.092Z,37.68
2023-11-24T00:17:16.049Z,37.68
2023-11-24T00:18:16.124Z,37.68
2023-11-24T00:19:16.036Z,37.67
2023-11-24T00:20:16.014Z,37.65
2023-11-24T00:21:16.025Z,37.64
2023-11-24T00:22:15.998Z,37.65
2023-11-24T00:23:15.999Z,37.67
2023-11-24T00:24:15.974Z,37.65
2023-11-24T00:25:15.976Z,37.68
2023-11-24T00:26:15.954Z,37.66
2023-11-24T00:27:15.966Z,37.68
2023-11-24T00:28:15.960Z,37.68
2023-11-24T00:29:15.938Z,37.67
2023-11-24T00:30:15.937Z,37.69
2023-11-24T00:31:15.916Z,37.66
2023-11-24T00:32:15.908Z,37.67
2023-11-24T00:33:16.007Z,37.66
2023-11-24T00:34:15.985Z,37.67
2023-11-24T00:35:15.885Z,37.67
2023-11-24T00:36:15.875Z,37.66
2023-11-24T00:37:15.856Z,37.66
2023-11-24T00:38:15.858Z,37.68
2023-11-24T00:39:15.850Z,37.67
2023-11-24T00:40:15.848Z,37.67
2023-11-24T00:41:15.844Z,37.68
2023-11-24T00:42:15.825Z,37.66
2023-11-24T00:43:15.823Z,37.69
2023-11-24T00:44:15.799Z,37.67
2023-11-24T00:45:15.812Z,37.67
2023-11-24T00:46:15.808Z,37.69
2023-11-24T00:47:15.787Z,37.67
2023-11-24T00:48:15.756Z,37.68
2023-11-24T00:49:15.757Z,37.68
2023-11-24T00:50:15.735Z,37.67
2023-11-24T00:51:15.799Z,37.67
2023-11-24T00:52:15.717Z,37.67
2023-11-24T00:53:15.760Z,37.68
2023-11-24T00:54:15.694Z,37.68
2023-11-24T00:55:15.701Z,37.66
2023-11-24T00:56:15.674Z,37.67
2023-11-24T00:57:15.687Z,37.68
2023-11-24T00:58:15.664Z,37.67
2023-11-24T00:59:15.670Z,37.69
2023-11-24T01:00:15.666Z,37.68
2023-11-24T01:01:15.640Z,37.67
2023-11-24T01:02:15.640Z,37.68
2023-11-24T01:03:15.705Z,37.67
2023-11-24T01:04:15.655Z,37.68
2023-11-24T01:05:15.600Z,37.69
2023-11-24T01:06:15.605Z,37.69
2023-11-24T01:07:15.582Z,37.68
2023-11-24T01:08:15.585Z,37.68
2023-11-24T01:09:15.561Z,37.66
2023-11-24T01:10:16.117Z,37.67
2023-11-24T01:11:15.547Z,37.69
2023-11-24T01:12:15.546Z,37.68
2023-11-24T01:13:20.536Z,37.67
2023-11-24T01:14:15.520Z,37.68
2023-11-24T01:15:15.512Z,37.70
2023-11-24T01:16:15.498Z,37.69
2023-11-24T01:17:15.518Z,37.68
2023-11-24T01:18:15.531Z,37.69
2023-11-24T01:19:15.522Z,37.67
2023-11-24T01:20:15.455Z,37.68
2023-11-24T01:21:15.464Z,37.69
2023-11-24T01:22:15.437Z,37.69
2023-11-24T01:23:15.427Z,37.68
2023-11-24T01:24:15.426Z,37.68
2023-11-24T01:25:15.429Z,37.69
2023-11-24T01:26:15.395Z,37.68
2023-11-24T01:27:15.398Z,37.68
2023-11-24T01:28:15.375Z,37.67
2023-11-24T01:29:15.388Z,37.69
2023-11-24T01:30:15.365Z,37.66
2023-11-24T01:31:15.367Z,37.69
2023-11-24T01:32:15.341Z,37.68
2023-11-24T01:33:15.359Z,37.67
2023-11-24T01:34:15.394Z,37.65
2023-11-24T01:35:15.323Z,37.68
2023-11-24T01:36:15.337Z,37.68
2023-11-24T01:37:15.387Z,37.67
2023-11-24T01:38:15.285Z,37.67
2023-11-24T01:39:15.298Z,37.67
2023-11-24T01:40:15.276Z,37.67
2023-11-24T01:41:15.266Z,37.70
2023-11-24T01:42:15.265Z,37.69
2023-11-24T01:43:15.239Z,37.69
2023-11-24T01:44:15.223Z,37.68
2023-11-24T01:45:15.235Z,37.69
2023-11-24T01:46:15.309Z,37.70
2023-11-24T01:47:15.213Z,37.71
2023-11-24T01:48:15.220Z,37.70
2023-11-24T01:49:15.196Z,37.70
2023-11-24T01:50:15.188Z,37.69
2023-11-24T01:51:15.168Z,37.71
2023-11-24T01:52:15.243Z,37.72
2023-11-24T01:53:15.244Z,37.68
2023-11-24T01:54:15.166Z,37.72
2023-11-24T01:55:15.196Z,37.70
2023-11-24T01:56:15.127Z,37.70
2023-11-24T01:57:15.114Z,37.71
2023-11-24T01:58:15.111Z,37.71
2023-11-24T01:59:15.107Z,37.73
2023-11-24T02:00:15.270Z,37.71
2023-11-24T02:01:15.106Z,37.70
2023-11-24T02:02:15.166Z,37.72
2023-11-24T02:03:15.149Z,37.71
2023-11-24T02:04:15.046Z,37.72
2023-11-24T02:05:15.056Z,37.72
2023-11-24T02:06:15.033Z,37.72
2023-11-24T02:07:15.029Z,37.73
2023-11-24T02:08:15.004Z,37.73
2023-11-24T02:09:15.011Z,37.72
2023-11-24T02:10:14.987Z,37.72
2023-11-24T02:11:14.999Z,37.72
2023-11-24T02:12:14.979Z,37.71
2023-11-24T02:13:14.972Z,37.72
2023-11-24T02:14:14.953Z,37.73
2023-11-24T02:15:14.957Z,37.72
2023-11-24T02:16:14.982Z,37.72
2023-11-24T02:17:14.937Z,37.74
2023-11-24T02:18:14.907Z,37.73
2023-11-24T02:19:14.925Z,37.74
2023-11-24T02:20:15.264Z,37.74
2023-11-24T02:21:14.900Z,37.71
2023-11-24T02:22:14.870Z,37.76
2023-11-24T02:23:14.876Z,37.74
2023-11-24T02:24:14.871Z,37.73
2023-11-24T02:25:19.907Z,37.74
2023-11-24T02:26:14.858Z,37.75
2023-11-24T02:27:14.846Z,37.75
2023-11-24T02:28:14.838Z,37.73
2023-11-24T02:29:14.835Z,37.74
2023-11-24T02:30:14.814Z,37.73
2023-11-24T02:31:14.913Z,37.72
2023-11-24T02:32:14.797Z,37.73
2023-11-24T02:33:14.798Z,37.75
2023-11-24T02:34:14.905Z,37.74
2023-11-24T02:35:14.756Z,37.75
2023-11-24T02:36:14.754Z,37.75
2023-11-24T02:37:14.759Z,37.74
2023-11-24T02:38:14.739Z,37.75
2023-11-24T02:39:14.733Z,37.76
2023-11-24T02:40:14.746Z,37.74
2023-11-24T02:41:14.723Z,37.75
2023-11-24T02:42:14.687Z,37.75
2023-11-24T02:43:14.695Z,37.72
2023-11-24T02:44:14.746Z,37.70
2023-11-24T02:45:14.672Z,37.70
2023-11-24T02:46:14.663Z,37.70
2023-11-24T02:47:14.698Z,37.70
2023-11-24T02:48:14.678Z,37.69
2023-11-24T02:49:14.671Z,37.68
2023-11-24T02:50:14.609Z,37.65
2023-11-24T02:51:14.618Z,37.63
2023-11-24T02:52:14.588Z,37.69
2023-11-24T02:53:14.605Z,37.70
2023-11-24T02:54:14.576Z,37.74
2023-11-24T02:55:14.572Z,37.66
2023-11-24T02:56:14.581Z,37.72
2023-11-24T02:57:14.560Z,37.73
2023-11-24T02:58:14.559Z,37.80
2023-11-24T02:59:14.543Z,37.82
2023-11-24T03:00:14.545Z,37.81
2023-11-24T03:01:14.572Z,37.84
2023-11-24T03:02:14.584Z,37.81
2023-11-24T03:03:14.493Z,37.81
2023-11-24T03:04:14.568Z,37.76
2023-11-24T03:05:14.476Z,37.78
2023-11-24T03:06:14.477Z,37.78
2023-11-24T03:07:14.465Z,37.75
2023-11-24T03:08:14.455Z,37.72
2023-11-24T03:09:14.438Z,37.70
2023-11-24T03:10:14.445Z,37.68
2023-11-24T03:11:14.418Z,37.68
2023-11-24T03:12:14.444Z,37.68
2023-11-24T03:13:14.400Z,37.68
2023-11-24T03:14:14.407Z,37.65
2023-11-24T03:15:14.393Z,37.63
2023-11-24T03:16:14.423Z,37.64
2023-11-24T03:17:14.422Z,37.60
2023-11-24T03:18:14.354Z,37.59
2023-11-24T03:19:14.373Z,37.59
2023-11-24T03:20:14.341Z,37.56
2023-11-24T03:21:14.344Z,37.56
2023-11-24T03:22:14.316Z,37.56
2023-11-24T03:23:14.332Z,37.56
2023-11-24T03:24:14.294Z,37.56
2023-11-24T03:25:14.298Z,37.55
2023-11-24T03:26:14.304Z,37.54
2023-11-24T03:27:19.299Z,37.51
2023-11-24T03:28:14.270Z,37.49
2023-11-24T03:29:14.261Z,37.50
2023-11-24T03:30:14.298Z,37.50
2023-11-24T03:31:14.237Z,37.47
2023-11-24T03:32:14.241Z,37.45
2023-11-24T03:33:14.223Z,37.46
2023-11-24T03:34:14.298Z,37.44
2023-11-24T03:35:14.202Z,37.39
2023-11-24T03:36:14.190Z,37.40
2023-11-24T03:37:14.187Z,37.38
2023-11-24T03:38:14.186Z,37.38
2023-11-24T03:39:14.169Z,37.38
2023-11-24T03:40:14.154Z,37.36
2023-11-24T03:41:14.140Z,37.35
2023-11-24T03:42:14.148Z,37.32
2023-11-24T03:43:14.202Z,37.32
2023-11-24T03:44:14.122Z,37.32
2023-11-24T03:45:14.122Z,37.33
2023-11-24T03:46:14.168Z,37.33
2023-11-24T03:47:14.090Z,37.32
2023-11-24T03:48:14.081Z,37.30
2023-11-24T03:49:14.196Z,37.29
2023-11-24T03:50:14.083Z,37.31
2023-11-24T03:51:14.079Z,37.28
2023-11-24T03:52:14.053Z,37.25
2023-11-24T03:53:14.048Z,37.29
2023-11-24T03:54:14.028Z,37.25
2023-11-24T03:55:14.033Z,37.23
2023-11-24T03:56:14.008Z,37.21
2023-11-24T03:57:14.032Z,37.20
2023-11-24T03:58:14.011Z,37.21
2023-11-24T03:59:13.989Z,37.21
2023-11-24T04:00:13.998Z,37.21
2023-11-24T04:01:14.040Z,37.19
2023-11-24T04:02:14.059Z,37.17
2023-11-24T04:03:13.991Z,37.17
2023-11-24T04:04:13.985Z,37.18
2023-11-24T04:05:13.960Z,37.12
2023-11-24T04:06:13.944Z,37.13
2023-11-24T04:07:13.940Z,37.15
2023-11-24T04:08:13.917Z,37.13
2023-11-24T04:09:13.915Z,37.14
2023-11-24T04:10:13.913Z,37.14
2023-11-24T04:11:13.898Z,37.10
2023-11-24T04:12:13.867Z,37.12
2023-11-24T04:13:13.891Z,37.14
2023-11-24T04:14:13.853Z,37.10
2023-11-24T04:15:13.857Z,37.10
2023-11-24T04:16:13.904Z,37.08
2023-11-24T04:17:13.839Z,37.08
2023-11-24T04:18:13.819Z,37.08
2023-11-24T04:19:13.820Z,37.09
2023-11-24T04:20:13.821Z,37.07
2023-11-24T04:21:13.801Z,37.05
2023-11-24T04:22:13.797Z,37.04
2023-11-24T04:23:13.784Z,37.03
2023-11-24T04:24:13.776Z,37.03
2023-11-24T04:25:13.796Z,37.02
2023-11-24T04:26:13.769Z,37.02
2023-11-24T04:27:13.732Z,37.01
2023-11-24T04:28:13.735Z,37.00
2023-11-24T04:29:18.761Z,36.99
2023-11-24T04:30:13.721Z,37.01
2023-11-24T04:31:13.703Z,37.00
2023-11-24T04:32:13.709Z,37.03
2023-11-24T04:33:13.718Z,36.98
2023-11-24T04:34:13.821Z,36.99
2023-11-24T04:35:13.680Z,36.95
2023-11-24T04:36:13.685Z,36.98
2023-11-24T04:37:13.666Z,36.98
2023-11-24T04:38:13.637Z,36.98
2023-11-24T04:39:13.643Z,36.96
2023-11-24T04:40:13.705Z,36.94
2023-11-24T04:41:13.628Z,36.98
2023-11-24T04:42:13.628Z,37.00
2023-11-24T04:43:13.625Z,36.95
2023-11-24T04:44:13.602Z,36.93
2023-11-24T04:45:13.583Z,36.93
2023-11-24T04:46:13.664Z,36.93
2023-11-24T04:47:13.555Z,36.93
2023-11-24T04:48:13.668Z,36.94
2023-11-24T04:49:13.538Z,36.93
2023-11-24T04:50:13.577Z,36.92
2023-11-24T04:51:13.525Z,36.94
2023-11-24T04:52:13.532Z,36.95
2023-11-24T04:53:13.553Z,36.95
2023-11-24T04:54:13.505Z,36.91
2023-11-24T04:55:13.500Z,36.92
2023-11-24T04:56:18.699Z,36.91
2023-11-24T04:57:13.490Z,36.95
2023-11-24T04:58:13.469Z,36.92
2023-11-24T04:59:13.471Z,36.93
2023-11-24T05:00:13.505Z,36.95
2023-11-24T05:01:13.580Z,36.91
2023-11-24T05:02:13.566Z,36.90
2023-11-24T05:03:13.433Z,36.90
2023-11-24T05:04:13.484Z,36.90
2023-11-24T05:05:13.416Z,36.87
2023-11-24T05:06:13.421Z,36.87
2023-11-24T05:07:13.424Z,36.88
2023-11-24T05:08:13.392Z,36.89
2023-11-24T05:09:13.395Z,36.90
2023-11-24T05:10:13.415Z,36.88
2023-11-24T05:11:13.363Z,36.88
2023-11-24T05:12:13.359Z,36.88
2023-11-24T05:13:13.418Z,36.85
2023-11-24T05:14:13.380Z,36.88
2023-11-24T05:15:13.333Z,36.85
2023-11-24T05:16:13.389Z,36.85
2023-11-24T05:17:13.322Z,36.87
2023-11-24T05:18:13.304Z,36.84
2023-11-24T05:19:13.288Z,36.89
2023-11-24T05:20:13.299Z,36.87
2023-11-24T05:21:13.283Z,36.88
2023-11-24T05:22:13.308Z,36.85
2023-11-24T05:23:13.329Z,36.84
2023-11-24T05:24:13.246Z,36.83
2023-11-24T05:25:13.226Z,36.83
2023-11-24T05:26:13.246Z,36.86
2023-11-24T05:27:13.241Z,36.84
2023-11-24T05:28:13.263Z,36.85
2023-11-24T05:29:13.224Z,36.82
2023-11-24T05:30:13.244Z,36.85
2023-11-24T05:31:13.274Z,36.87
2023-11-24T05:32:13.218Z,36.82
2023-11-24T05:33:13.167Z,36.82
2023-11-24T05:34:13.188Z,36.83
2023-11-24T05:35:13.157Z,36.85
2023-11-24T05:36:13.157Z,36.83
2023-11-24T05:37:13.198Z,36.82
2023-11-24T05:38:13.142Z,36.85
2023-11-24T05:39:13.136Z,36.84
2023-11-24T05:40:13.159Z,36.82
2023-11-24T05:41:13.116Z,36.82
2023-11-24T05:42:13.094Z,36.85
2023-11-24T05:43:13.164Z,36.84
2023-11-24T05:44:13.077Z,36.81
2023-11-24T05:45:13.079Z,36.81
2023-11-24T05:46:13.189Z,36.81
2023-11-24T05:47:13.057Z,36.81
2023-11-24T05:48:13.064Z,36.84
2023-11-24T05:49:13.033Z,36.83
2023-11-24T05:50:13.037Z,36.82
2023-11-24T05:51:13.015Z,36.82
2023-11-24T05:52:13.133Z,36.84
2023-11-24T05:53:13.018Z,36.80
2023-11-24T05:54:12.990Z,36.79
2023-11-24T05:55:13.094Z,36.80
2023-11-24T05:56:12.987Z,36.83
2023-11-24T05:57:12.965Z,36.78
2023-11-24T05:58:13.088Z,36.79
2023-11-24T05:59:12.930Z,36.77
2023-11-24T06:00:12.972Z,36.79
2023-11-24T06:01:12.960Z,36.78
2023-11-24T06:02:12.963Z,36.80
2023-11-24T06:03:12.923Z,36.82
2023-11-24T06:04:12.995Z,36.81
2023-11-24T06:05:13.012Z,36.80
2023-11-24T06:06:12.886Z,36.78
2023-11-24T06:07:17.900Z,36.80
2023-11-24T06:08:12.859Z,36.79
2023-11-24T06:09:12.856Z,36.83
2023-11-24T06:10:12.874Z,36.80
2023-11-24T06:11:12.858Z,36.79
2023-11-24T06:12:12.857Z,36.80
2023-11-24T06:13:12.873Z,36.79
2023-11-24T06:14:12.817Z,36.80
2023-11-24T06:15:12.822Z,36.79
2023-11-24T06:16:12.826Z,36.78
2023-11-24T06:17:12.788Z,36.82
2023-11-24T06:18:12.845Z,36.83
2023-11-24T06:19:12.799Z,36.79
2023-11-24T06:20:12.764Z,36.82
2023-11-24T06:21:12.736Z,36.79
2023-11-24T06:22:12.780Z,36.81
2023-11-24T06:23:12.719Z,36.81
2023-11-24T06:24:12.730Z,36.80
2023-11-24T06:25:15.948Z,36.83
2023-11-24T06:26:12.709Z,36.87
2023-11-24T06:27:12.695Z,36.86
2023-11-24T06:28:12.728Z,36.83
2023-11-24T06:29:12.675Z,36.84
2023-11-24T06:30:12.668Z,36.85
2023-11-24T06:31:14.807Z,36.85
2023-11-24T06:32:12.672Z,36.86
2023-11-24T06:33:12.660Z,36.99
2023-11-24T06:34:12.761Z,37.10
2023-11-24T06:35:12.623Z,37.20
2023-11-24T06:36:12.715Z,37.06
2023-11-24T06:37:12.708Z,37.12
2023-11-24T06:38:12.617Z,37.17
2023-11-24T06:39:12.602Z,37.17
2023-11-24T06:40:12.846Z,37.15
2023-11-24T06:41:12.567Z,37.42
2023-11-24T06:42:12.568Z,37.65
2023-11-24T06:43:12.630Z,35.76
2023-11-24T06:44:12.554Z,35.24
2023-11-24T06:45:12.567Z,32.89
2023-11-24T06:46:12.556Z,31.00
2023-11-24T06:47:12.524Z,31.97
2023-11-24T06:48:12.546Z,32.79
2023-11-24T06:49:12.540Z,33.13
2023-11-24T06:50:12.510Z,33.63
2023-11-24T06:51:12.482Z,35.01
2023-11-24T06:52:12.499Z,36.60
2023-11-24T06:53:12.473Z,36.79
2023-11-24T06:54:12.453Z,37.07
2023-11-24T06:55:12.505Z,37.85
2023-11-24T06:56:12.471Z,38.57
2023-11-24T06:57:12.427Z,38.76
2023-11-24T06:58:12.497Z,39.29
2023-11-24T06:59:12.409Z,39.27
2023-11-24T07:00:12.439Z,38.55
2023-11-24T07:01:12.510Z,39.41
2023-11-24T07:02:12.503Z,38.80
2023-11-24T07:03:12.403Z,38.63
2023-11-24T07:04:12.495Z,38.59
2023-11-24T07:05:13.475Z,38.93
2023-11-24T07:06:12.644Z,39.03
2023-11-24T07:07:12.813Z,39.16
2023-11-24T07:08:12.658Z,39.38
2023-11-24T07:09:13.399Z,39.24
2023-11-24T07:10:12.431Z,39.38
2023-11-24T07:11:12.447Z,39.50
2023-11-24T07:12:12.307Z,39.62
2023-11-24T07:13:12.317Z,39.59
2023-11-24T07:14:12.299Z,39.85
2023-11-24T07:15:12.277Z,39.82
2023-11-24T07:16:12.354Z,39.87
2023-11-24T07:17:12.246Z,39.92
2023-11-24T07:18:12.358Z,39.95
2023-11-24T07:19:12.392Z,39.96
2023-11-24T07:20:12.218Z,39.97
2023-11-24T07:21:12.198Z,40.06
2023-11-24T07:22:12.255Z,40.16
2023-11-24T07:23:12.214Z,40.19
2023-11-24T07:24:12.179Z,40.30
2023-11-24T07:25:12.261Z,40.46
2023-11-24T07:26:12.160Z,40.55
2023-11-24T07:27:12.171Z,40.84
2023-11-24T07:28:12.229Z,40.82
2023-11-24T07:29:12.115Z,40.87
2023-11-24T07:30:12.135Z,40.92
2023-11-24T07:31:12.143Z,40.98
2023-11-24T07:32:12.123Z,41.03
2023-11-24T07:33:12.518Z,41.06
2023-11-24T07:34:12.214Z,41.09
2023-11-24T07:35:12.426Z,41.14
2023-11-24T07:36:12.057Z,41.27
2023-11-24T07:37:12.105Z,41.44
2023-11-24T07:38:12.066Z,41.58
2023-11-24T07:39:12.040Z,41.53
2023-11-24T07:40:12.094Z,41.48
2023-11-24T07:41:12.053Z,41.64
2023-11-24T07:42:12.012Z,41.75
2023-11-24T07:43:12.055Z,42.00
2023-11-24T07:44:12.024Z,42.09
2023-11-24T07:45:12.000Z,42.00
2023-11-24T07:46:12.419Z,42.10
2023-11-24T07:47:11.972Z,42.18
2023-11-24T07:48:12.000Z,42.27
2023-11-24T07:49:12.061Z,42.34
2023-11-24T07:50:11.940Z,42.37
2023-11-24T07:51:11.942Z,42.53
2023-11-24T07:52:12.090Z,42.70
2023-11-24T07:53:11.905Z,42.55
2023-11-24T07:54:11.939Z,42.50
2023-11-24T07:55:11.935Z,42.51
2023-11-24T07:56:11.901Z,42.45
2023-11-24T07:57:11.874Z,38.51
2023-11-24T07:58:11.906Z,33.38
2023-11-24T07:59:11.854Z,31.53
2023-11-24T08:00:11.848Z,33.15
2023-11-24T08:01:12.024Z,34.86
2023-11-24T08:02:11.925Z,35.82
2023-11-24T08:03:11.839Z,35.92
2023-11-24T08:04:11.950Z,36.36
2023-11-24T08:05:11.874Z,36.57
2023-11-24T08:06:11.799Z,36.78
2023-11-24T08:07:11.849Z,36.92
2023-11-24T08:08:11.787Z,36.99
2023-11-24T08:09:11.802Z,37.14
2023-11-24T08:10:11.849Z,37.18
2023-11-24T08:11:11.741Z,37.22
2023-11-24T08:12:14.218Z,37.23
2023-11-24T08:13:11.887Z,37.26
2023-11-24T08:14:11.862Z,37.36
2023-11-24T08:15:11.872Z,37.44
2023-11-24T08:16:11.941Z,37.45
2023-11-24T08:17:11.918Z,37.47
2023-11-24T08:18:11.873Z,37.51
2023-11-24T08:19:11.895Z,37.49
2023-11-24T08:20:11.869Z,37.55
2023-11-24T08:21:11.796Z,37.60
2023-11-24T08:22:11.880Z,37.64
2023-11-24T08:23:11.775Z,37.69
2023-11-24T08:24:11.756Z,37.73
2023-11-24T08:25:12.030Z,37.76
2023-11-24T08:26:13.247Z,37.82
2023-11-24T08:27:11.739Z,37.85
2023-11-24T08:28:11.762Z,37.91
2023-11-24T08:29:11.719Z,37.95
2023-11-24T08:30:11.729Z,37.99
2023-11-24T08:31:11.747Z,38.08
2023-11-24T08:32:11.714Z,38.16
2023-11-24T08:33:11.754Z,38.21
2023-11-24T08:34:11.728Z,38.25
2023-11-24T08:35:11.724Z,38.28
2023-11-24T08:36:11.709Z,38.36
2023-11-24T08:37:11.702Z,38.43
2023-11-24T08:38:13.081Z,38.48
2023-11-24T08:39:11.615Z,38.68
2023-11-24T08:40:11.741Z,38.67
2023-11-24T08:41:11.597Z,38.71
2023-11-24T08:42:11.602Z,38.78
2023-11-24T08:43:11.657Z,38.85
2023-11-24T08:44:11.601Z,38.89
2023-11-24T08:45:11.587Z,38.92
2023-11-24T08:46:11.715Z,39.03
2023-11-24T08:47:11.636Z,39.12
2023-11-24T08:48:11.618Z,39.14
2023-11-24T08:49:11.584Z,39.20
2023-11-24T08:50:11.524Z,39.22
2023-11-24T08:51:11.528Z,39.26
2023-11-24T08:52:11.577Z,39.26
2023-11-24T08:53:11.503Z,39.31
2023-11-24T08:54:11.697Z,39.31
2023-11-24T08:55:11.572Z,39.37
2023-11-24T08:56:11.504Z,39.43
2023-11-24T08:57:11.464Z,39.48
2023-11-24T08:58:11.500Z,39.48
2023-11-24T08:59:11.444Z,39.47
2023-11-24T09:00:11.424Z,39.48
2023-11-24T09:01:11.505Z,39.46
2023-11-24T09:02:11.543Z,39.45
2023-11-24T09:03:11.410Z,39.50
2023-11-24T09:04:11.561Z,39.52
2023-11-24T09:05:11.449Z,39.53
2023-11-24T09:06:11.391Z,39.57
2023-11-24T09:07:11.402Z,39.58
2023-11-24T09:08:11.369Z,39.52
2023-11-24T09:09:11.355Z,39.51
2023-11-24T09:10:11.393Z,39.50
2023-11-24T09:11:11.333Z,39.50
2023-11-24T09:12:11.332Z,39.49
2023-11-24T09:13:11.411Z,39.48
2023-11-24T09:14:11.375Z,39.50
2023-11-24T09:15:11.370Z,39.50
2023-11-24T09:16:11.361Z,39.53
2023-11-24T09:17:11.361Z,39.50
2023-11-24T09:18:11.280Z,39.49
2023-11-24T09:19:11.299Z,39.46
2023-11-24T09:20:11.266Z,39.46
2023-11-24T09:21:11.255Z,39.47
2023-11-24T09:22:11.288Z,39.48
2023-11-24T09:23:11.240Z,39.48
2023-11-24T09:24:11.210Z,39.51
2023-11-24T09:25:11.275Z,39.50
2023-11-24T09:26:11.199Z,39.49
2023-11-24T09:27:11.189Z,39.51
2023-11-24T09:28:11.217Z,39.46
2023-11-24T09:29:11.187Z,39.49
2023-11-24T09:30:11.198Z,39.47
2023-11-24T09:31:11.215Z,39.46
2023-11-24T09:32:11.160Z,39.46
2023-11-24T09:33:11.156Z,39.46
2023-11-24T09:34:11.196Z,39.43
2023-11-24T09:35:11.233Z,39.45
2023-11-24T09:36:11.122Z,39.44
2023-11-24T09:37:11.128Z,39.42
2023-11-24T09:38:11.103Z,39.43
2023-11-24T09:39:11.078Z,39.40
2023-11-24T09:40:11.179Z,39.42
2023-11-24T09:41:11.078Z,39.42
2023-11-24T09:42:11.048Z,39.40
2023-11-24T09:43:11.070Z,39.39
2023-11-24T09:44:11.033Z,39.38
2023-11-24T09:45:11.068Z,39.36
2023-11-24T09:46:11.069Z,39.39
2023-11-24T09:47:11.031Z,39.38
2023-11-24T09:48:11.004Z,39.35
2023-11-24T09:49:10.993Z,39.28
2023-11-24T09:50:10.987Z,39.36
2023-11-24T09:51:10.964Z,39.37
2023-11-24T09:52:10.962Z,39.31
2023-11-24T09:53:10.960Z,39.28
2023-11-24T09:54:10.931Z,39.29
2023-11-24T09:55:10.955Z,39.30
2023-11-24T09:56:10.916Z,39.26
2023-11-24T09:57:10.918Z,39.30
2023-11-24T09:58:10.919Z,39.25
2023-11-24T09:59:10.914Z,39.20
2023-11-24T10:00:10.952Z,39.21
2023-11-24T10:01:11.005Z,39.17
2023-11-24T10:02:10.865Z,39.17
2023-11-24T10:03:10.898Z,39.16
2023-11-24T10:04:10.919Z,39.14
2023-11-24T10:05:10.852Z,39.14
2023-11-24T10:06:10.805Z,39.12
2023-11-24T10:07:10.838Z,39.13
2023-11-24T10:08:13.190Z,39.13
2023-11-24T10:09:10.797Z,39.11
2023-11-24T10:10:10.810Z,39.14
2023-11-24T10:11:10.780Z,39.14
2023-11-24T10:12:10.745Z,39.09
2023-11-24T10:13:10.803Z,39.10
2023-11-24T10:14:10.761Z,39.10
2023-11-24T10:15:10.747Z,39.09
2023-11-24T10:16:10.757Z,39.12
2023-11-24T10:17:10.735Z,39.10
2023-11-24T10:18:10.756Z,39.10
2023-11-24T10:19:10.727Z,39.07
2023-11-24T10:20:10.698Z,39.08
2023-11-24T10:21:22.837Z,39.08
2023-11-24T10:22:11.763Z,39.07
2023-11-24T10:23:10.666Z,39.05
2023-11-24T10:24:10.650Z,39.05
2023-11-24T10:25:10.701Z,39.07
2023-11-24T10:26:13.193Z,39.07
2023-11-24T10:27:10.641Z,39.07
2023-11-24T10:28:10.638Z,39.05
2023-11-24T10:29:10.633Z,39.05
2023-11-24T10:30:10.601Z,39.04
2023-11-24T10:31:10.605Z,39.05
2023-11-24T10:32:13.022Z,39.03
2023-11-24T10:33:34.362Z,39.07
2023-11-24T10:34:11.648Z,39.04
2023-11-24T10:35:10.656Z,38.99
2023-11-24T10:36:10.529Z,38.99
2023-11-24T10:37:10.589Z,39.02
2023-11-24T10:38:12.763Z,39.00
2023-11-24T10:39:10.517Z,39.00
2023-11-24T10:40:10.548Z,38.99
2023-11-24T10:41:10.503Z,38.96
2023-11-24T10:42:10.707Z,38.94
2023-11-24T10:43:10.508Z,38.96
2023-11-24T10:44:10.560Z,38.96
2023-11-24T10:45:10.471Z,38.94
2023-11-24T10:46:12.374Z,39.03
2023-11-24T10:47:10.474Z,38.50
2023-11-24T10:48:10.494Z,38.37
2023-11-24T10:49:10.451Z,38.51
2023-11-24T10:50:10.391Z,39.37
2023-11-24T10:51:10.398Z,37.67
2023-11-24T10:52:10.467Z,37.31
2023-11-24T10:53:10.379Z,37.69
2023-11-24T10:54:10.357Z,38.20
2023-11-24T10:55:10.379Z,38.80
2023-11-24T10:56:10.344Z,38.80
2023-11-24T10:57:10.357Z,38.98
2023-11-24T10:58:10.355Z,39.05
2023-11-24T10:59:10.314Z,38.91
2023-11-24T11:00:10.338Z,39.14
2023-11-24T11:01:10.372Z,39.25
2023-11-24T11:02:14.020Z,39.01
2023-11-24T11:03:10.313Z,38.96
2023-11-24T11:04:10.260Z,38.87
2023-11-24T11:05:10.256Z,38.92
2023-11-24T11:06:10.277Z,38.95
2023-11-24T11:07:10.275Z,39.11
2023-11-24T11:08:10.234Z,39.25
2023-11-24T11:09:10.215Z,39.14
2023-11-24T11:10:10.229Z,38.60
2023-11-24T11:11:10.256Z,39.14
2023-11-24T11:12:10.200Z,38.91
2023-11-24T11:13:10.182Z,38.94
2023-11-24T11:14:10.208Z,38.54
2023-11-24T11:15:10.162Z,38.30
2023-11-24T11:16:10.208Z,38.49
2023-11-24T11:17:10.196Z,38.10
2023-11-24T11:18:10.236Z,38.19
2023-11-24T11:19:10.167Z,38.01
2023-11-24T11:20:10.142Z,38.32
2023-11-24T11:21:10.106Z,37.89
2023-11-24T11:22:10.108Z,38.00
2023-11-24T11:23:10.120Z,37.75
2023-11-24T11:24:10.098Z,37.45
2023-11-24T11:25:10.092Z,37.85
2023-11-24T11:26:10.057Z,37.97
2023-11-24T11:27:10.070Z,38.05
2023-11-24T11:28:10.072Z,38.38
2023-11-24T11:29:10.052Z,38.56
2023-11-24T11:30:10.016Z,38.54
2023-11-24T11:31:10.151Z,38.47
2023-11-24T11:32:10.018Z,38.53
2023-11-24T11:33:10.023Z,38.53
2023-11-24T11:34:10.071Z,38.56
2023-11-24T11:35:09.991Z,38.79
2023-11-24T11:36:09.966Z,38.66
2023-11-24T11:37:09.992Z,38.75
2023-11-24T11:38:09.949Z,38.78
2023-11-24T11:39:09.937Z,38.74
2023-11-24T11:40:10.018Z,38.94
2023-11-24T11:41:09.930Z,39.10
2023-11-24T11:42:09.935Z,38.91
2023-11-24T11:43:09.933Z,38.58
2023-11-24T11:44:09.917Z,36.16
2023-11-24T11:45:09.914Z,35.00
2023-11-24T11:46:09.936Z,33.62
2023-11-24T11:47:09.949Z,35.10
2023-11-24T11:48:09.930Z,35.81
2023-11-24T11:49:09.911Z,36.45
2023-11-24T11:50:09.847Z,36.59
2023-11-24T11:51:09.844Z,36.82
2023-11-24T11:52:10.008Z,36.96
2023-11-24T11:53:09.850Z,37.10
2023-11-24T11:54:09.813Z,37.37
2023-11-24T11:55:09.871Z,37.36
2023-11-24T11:56:09.790Z,37.57
2023-11-24T11:57:09.790Z,37.60
2023-11-24T11:58:09.785Z,37.76
2023-11-24T11:59:09.776Z,37.92
2023-11-24T12:00:09.776Z,37.99
2023-11-24T12:01:09.973Z,38.03
2023-11-24T12:02:09.809Z,38.08
2023-11-24T12:03:09.834Z,38.26
2023-11-24T12:04:09.823Z,38.37
2023-11-24T12:05:09.713Z,38.43
2023-11-24T12:06:09.689Z,38.60
2023-11-24T12:07:09.734Z,38.85
2023-11-24T12:08:09.701Z,38.79
2023-11-24T12:09:09.680Z,38.95
2023-11-24T12:10:09.700Z,39.09
2023-11-24T12:11:09.663Z,39.17
2023-11-24T12:12:09.646Z,39.28
2023-11-24T12:13:09.653Z,39.45
2023-11-24T12:14:09.637Z,39.50
2023-11-24T12:15:09.616Z,39.62
2023-11-24T12:16:09.788Z,39.76
2023-11-24T12:17:09.731Z,39.89
2023-11-24T12:18:09.607Z,39.92
2023-11-24T12:19:09.663Z,40.05
2023-11-24T12:20:09.565Z,40.15
2023-11-24T12:21:09.578Z,40.30
2023-11-24T12:22:09.588Z,40.48
2023-11-24T12:23:09.554Z,40.61
2023-11-24T12:24:15.247Z,40.62
2023-11-24T12:25:10.595Z,40.79
2023-11-24T12:26:09.508Z,40.93
2023-11-24T12:27:09.515Z,41.04
2023-11-24T12:28:09.519Z,41.12
2023-11-24T12:29:09.497Z,41.11
2023-11-24T12:30:09.506Z,41.22
2023-11-24T12:31:09.564Z,41.21
2023-11-24T12:32:09.526Z,41.47
2023-11-24T12:33:09.516Z,41.44
2023-11-24T12:34:09.469Z,41.74
2023-11-24T12:35:09.613Z,41.68
2023-11-24T12:36:09.482Z,41.94
2023-11-24T12:37:09.494Z,41.82
2023-11-24T12:38:09.439Z,41.65
2023-11-24T12:39:09.431Z,41.77
2023-11-24T12:40:09.430Z,41.79
2023-11-24T12:41:09.374Z,41.87
2023-11-24T12:42:09.396Z,41.86
2023-11-24T12:43:09.393Z,41.87
2023-11-24T12:44:11.488Z,41.95
2023-11-24T12:45:09.358Z,41.99
2023-11-24T12:46:09.411Z,42.03
2023-11-24T12:47:09.347Z,42.06
2023-11-24T12:48:09.320Z,42.11
2023-11-24T12:49:09.599Z,42.10
2023-11-24T12:50:09.301Z,42.10
2023-11-24T12:51:09.319Z,42.12
2023-11-24T12:52:09.384Z,42.15